sensor_id;sensor_type;location;lat;lon;timestamp;temperature;humidity
42347;DHT22;75728;51.856;6.314;2024-03-17T00:02:18;21.00;99.90
42347;DHT22;75728;51.856;6.314;2024-03-17T00:04:45;21.00;99.90
42347;DHT22;75728;51.856;6.314;2024-03-17T00:07:11;21.00;99.90
42347;DHT22;75728;51.856;6.314;2024-03-17T00:09:37;21.00;99.90
42347;DHT22;75728;51.856;6.314;2024-03-17T00:12:03;21.00;99.90
42347;DHT22;75728;51.856;6.314;2024-03-17T00:14:28;21.00;99.90
42347;DHT22;75728;51.856;6.314;2024-03-17T00:16:54;21.00;99.90
42347;DHT22;75728;51.856;6.314;2024-03-17T00:19:20;21.00;99.90
42347;DHT22;75728;51.856;6.314;2024-03-17T00:21:48;21.00;99.90
42347;DHT22;75728;51.856;6.314;2024-03-17T00:24:16;20.90;99.90
42347;DHT22;75728;51.856;6.314;2024-03-17T00:26:41;20.90;99.90
42347;DHT22;75728;51.856;6.314;2024-03-17T00:29:07;20.90;99.90
42347;DHT22;75728;51.856;6.314;2024-03-17T00:31:33;20.90;99.90
42347;DHT22;75728;51.856;6.314;2024-03-17T00:33:58;20.90;99.90
42347;DHT22;75728;51.856;6.314;2024-03-17T00:36:24;20.90;99.90
42347;DHT22;75728;51.856;6.314;2024-03-17T00:38:50;20.90;99.90
42347;DHT22;75728;51.856;6.314;2024-03-17T00:41:17;20.90;99.90
42347;DHT22;75728;51.856;6.314;2024-03-17T00:43:43;20.90;99.90
42347;DHT22;75728;51.856;6.314;2024-03-17T00:46:08;20.90;99.90
42347;DHT22;75728;51.856;6.314;2024-03-17T00:48:34;20.90;99.90
42347;DHT22;75728;51.856;6.314;2024-03-17T00:50:59;20.90;99.90
42347;DHT22;75728;51.856;6.314;2024-03-17T00:53:25;20.90;99.90
42347;DHT22;75728;51.856;6.314;2024-03-17T00:55:52;20.90;99.90
42347;DHT22;75728;51.856;6.314;2024-03-17T00:58:21;20.90;99.90
42347;DHT22;75728;51.856;6.314;2024-03-17T01:00:47;20.90;99.90
42347;DHT22;75728;51.856;6.314;2024-03-17T01:03:16;20.90;99.90
42347;DHT22;75728;51.856;6.314;2024-03-17T01:05:42;20.90;99.90
42347;DHT22;75728;51.856;6.314;2024-03-17T01:08:10;20.90;99.90
42347;DHT22;75728;51.856;6.314;2024-03-17T01:10:42;20.80;99.90
42347;DHT22;75728;51.856;6.314;2024-03-17T01:13:09;20.90;99.90
42347;DHT22;75728;51.856;6.314;2024-03-17T01:15:38;20.80;99.90
42347;DHT22;75728;51.856;6.314;2024-03-17T01:18:05;20.80;99.90
42347;DHT22;75728;51.856;6.314;2024-03-17T01:20:31;20.80;99.90
42347;DHT22;75728;51.856;6.314;2024-03-17T01:22:57;20.90;99.90
42347;DHT22;75728;51.856;6.314;2024-03-17T01:25:23;20.80;99.90
42347;DHT22;75728;51.856;6.314;2024-03-17T01:27:51;20.80;99.90
42347;DHT22;75728;51.856;6.314;2024-03-17T01:30:17;20.80;99.90
42347;DHT22;75728;51.856;6.314;2024-03-17T01:32:42;20.80;99.90
42347;DHT22;75728;51.856;6.314;2024-03-17T01:35:08;20.80;99.90
42347;DHT22;75728;51.856;6.314;2024-03-17T01:37:34;20.80;99.90
42347;DHT22;75728;51.856;6.314;2024-03-17T01:39:59;20.80;99.90
42347;DHT22;75728;51.856;6.314;2024-03-17T01:42:25;20.80;99.90
42347;DHT22;75728;51.856;6.314;2024-03-17T01:44:50;20.80;99.90
42347;DHT22;75728;51.856;6.314;2024-03-17T01:47:20;20.70;99.90
42347;DHT22;75728;51.856;6.314;2024-03-17T01:49:47;20.80;99.90
42347;DHT22;75728;51.856;6.314;2024-03-17T01:52:16;20.80;99.90
42347;DHT22;75728;51.856;6.314;2024-03-17T01:54:43;20.80;99.90
42347;DHT22;75728;51.856;6.314;2024-03-17T01:57:09;20.70;99.90
42347;DHT22;75728;51.856;6.314;2024-03-17T01:59:35;20.70;99.90
42347;DHT22;75728;51.856;6.314;2024-03-17T02:02:02;20.80;99.90
42347;DHT22;75728;51.856;6.314;2024-03-17T02:04:28;20.70;99.90
42347;DHT22;75728;51.856;6.314;2024-03-17T02:06:54;20.70;99.90
42347;DHT22;75728;51.856;6.314;2024-03-17T02:09:19;20.70;99.90
42347;DHT22;75728;51.856;6.314;2024-03-17T02:11:47;20.80;99.90
42347;DHT22;75728;51.856;6.314;2024-03-17T02:14:13;20.70;99.90
42347;DHT22;75728;51.856;6.314;2024-03-17T02:16:40;20.70;99.90
42347;DHT22;75728;51.856;6.314;2024-03-17T02:19:06;20.70;99.90
42347;DHT22;75728;51.856;6.314;2024-03-17T02:21:31;20.70;99.90
42347;DHT22;75728;51.856;6.314;2024-03-17T02:23:57;20.70;99.90
42347;DHT22;75728;51.856;6.314;2024-03-17T02:26:26;20.70;99.90
42347;DHT22;75728;51.856;6.314;2024-03-17T02:28:52;20.70;99.90
42347;DHT22;75728;51.856;6.314;2024-03-17T02:31:17;20.70;99.90
42347;DHT22;75728;51.856;6.314;2024-03-17T02:33:44;20.70;99.90
42347;DHT22;75728;51.856;6.314;2024-03-17T02:36:10;20.70;99.90
42347;DHT22;75728;51.856;6.314;2024-03-17T02:38:38;20.70;99.90
42347;DHT22;75728;51.856;6.314;2024-03-17T02:41:22;20.70;99.90
42347;DHT22;75728;51.856;6.314;2024-03-17T02:43:49;20.70;99.90
42347;DHT22;75728;51.856;6.314;2024-03-17T02:46:15;20.70;99.90
42347;DHT22;75728;51.856;6.314;2024-03-17T02:48:42;20.70;99.90
42347;DHT22;75728;51.856;6.314;2024-03-17T02:51:15;20.70;99.90
42347;DHT22;75728;51.856;6.314;2024-03-17T02:53:42;20.60;99.90
42347;DHT22;75728;51.856;6.314;2024-03-17T02:56:08;20.60;99.90
42347;DHT22;75728;51.856;6.314;2024-03-17T02:58:38;20.60;99.90
42347;DHT22;75728;51.856;6.314;2024-03-17T03:01:07;20.60;99.90
42347;DHT22;75728;51.856;6.314;2024-03-17T03:03:35;20.60;99.90
42347;DHT22;75728;51.856;6.314;2024-03-17T03:06:01;20.50;99.90
42347;DHT22;75728;51.856;6.314;2024-03-17T03:08:30;20.50;99.90
42347;DHT22;75728;51.856;6.314;2024-03-17T03:10:56;20.50;99.90
42347;DHT22;75728;51.856;6.314;2024-03-17T03:13:21;20.60;99.90
42347;DHT22;75728;51.856;6.314;2024-03-17T03:15:48;20.50;99.90
42347;DHT22;75728;51.856;6.314;2024-03-17T03:18:14;20.50;99.90
42347;DHT22;75728;51.856;6.314;2024-03-17T03:20:40;20.50;99.90
42347;DHT22;75728;51.856;6.314;2024-03-17T03:23:05;20.50;99.90
42347;DHT22;75728;51.856;6.314;2024-03-17T03:25:31;20.50;99.90
42347;DHT22;75728;51.856;6.314;2024-03-17T03:27:57;20.50;99.90
42347;DHT22;75728;51.856;6.314;2024-03-17T03:30:23;20.50;99.90
42347;DHT22;75728;51.856;6.314;2024-03-17T03:32:49;20.50;99.90
42347;DHT22;75728;51.856;6.314;2024-03-17T03:35:15;20.50;99.90
42347;DHT22;75728;51.856;6.314;2024-03-17T03:37:41;20.50;99.90
42347;DHT22;75728;51.856;6.314;2024-03-17T03:40:08;20.50;99.90
42347;DHT22;75728;51.856;6.314;2024-03-17T03:42:42;20.50;99.90
42347;DHT22;75728;51.856;6.314;2024-03-17T03:45:08;20.50;99.90
42347;DHT22;75728;51.856;6.314;2024-03-17T03:47:34;20.50;99.90
42347;DHT22;75728;51.856;6.314;2024-03-17T03:50:00;20.50;99.90
42347;DHT22;75728;51.856;6.314;2024-03-17T03:52:26;20.50;99.90
42347;DHT22;75728;51.856;6.314;2024-03-17T03:54:51;20.50;99.90
42347;DHT22;75728;51.856;6.314;2024-03-17T03:57:17;20.50;99.90
42347;DHT22;75728;51.856;6.314;2024-03-17T03:59:43;20.50;99.90
42347;DHT22;75728;51.856;6.314;2024-03-17T04:02:09;20.50;99.90
42347;DHT22;75728;51.856;6.314;2024-03-17T04:04:35;20.50;99.90
42347;DHT22;75728;51.856;6.314;2024-03-17T04:07:00;20.50;99.90
42347;DHT22;75728;51.856;6.314;2024-03-17T04:09:26;20.50;99.90
42347;DHT22;75728;51.856;6.314;2024-03-17T04:11:52;20.50;99.90
42347;DHT22;75728;51.856;6.314;2024-03-17T04:14:17;20.50;99.90
42347;DHT22;75728;51.856;6.314;2024-03-17T04:16:43;20.40;99.90
42347;DHT22;75728;51.856;6.314;2024-03-17T04:19:09;20.40;99.90
42347;DHT22;75728;51.856;6.314;2024-03-17T04:21:35;20.50;99.90
42347;DHT22;75728;51.856;6.314;2024-03-17T04:24:00;20.50;99.90
42347;DHT22;75728;51.856;6.314;2024-03-17T04:26:26;20.50;99.90
42347;DHT22;75728;51.856;6.314;2024-03-17T04:28:52;20.50;99.90
42347;DHT22;75728;51.856;6.314;2024-03-17T04:31:17;20.50;99.90
42347;DHT22;75728;51.856;6.314;2024-03-17T04:33:43;20.50;99.90
42347;DHT22;75728;51.856;6.314;2024-03-17T04:36:09;20.40;99.90
42347;DHT22;75728;51.856;6.314;2024-03-17T04:38:34;20.50;99.90
42347;DHT22;75728;51.856;6.314;2024-03-17T04:41:00;20.40;99.90
42347;DHT22;75728;51.856;6.314;2024-03-17T04:43:34;20.40;99.90
42347;DHT22;75728;51.856;6.314;2024-03-17T04:46:04;20.50;99.90
42347;DHT22;75728;51.856;6.314;2024-03-17T04:48:31;20.50;99.90
42347;DHT22;75728;51.856;6.314;2024-03-17T04:50:57;20.40;99.90
42347;DHT22;75728;51.856;6.314;2024-03-17T04:53:24;20.50;99.90
42347;DHT22;75728;51.856;6.314;2024-03-17T04:56:04;20.50;99.90
42347;DHT22;75728;51.856;6.314;2024-03-17T04:58:31;20.40;99.90
42347;DHT22;75728;51.856;6.314;2024-03-17T05:00:57;20.40;99.90
42347;DHT22;75728;51.856;6.314;2024-03-17T05:03:23;20.50;99.90
42347;DHT22;75728;51.856;6.314;2024-03-17T05:05:48;20.50;99.90
42347;DHT22;75728;51.856;6.314;2024-03-17T05:08:26;20.40;99.90
42347;DHT22;75728;51.856;6.314;2024-03-17T05:10:56;20.40;99.90
42347;DHT22;75728;51.856;6.314;2024-03-17T05:13:22;20.40;99.90
42347;DHT22;75728;51.856;6.314;2024-03-17T05:15:48;20.50;99.90
42347;DHT22;75728;51.856;6.314;2024-03-17T05:18:13;20.40;99.90
42347;DHT22;75728;51.856;6.314;2024-03-17T05:20:39;20.50;99.90
42347;DHT22;75728;51.856;6.314;2024-03-17T05:23:04;20.50;99.90
42347;DHT22;75728;51.856;6.314;2024-03-17T05:25:30;20.40;99.90
42347;DHT22;75728;51.856;6.314;2024-03-17T05:27:58;20.40;99.90
42347;DHT22;75728;51.856;6.314;2024-03-17T05:30:23;20.40;99.90
42347;DHT22;75728;51.856;6.314;2024-03-17T05:32:51;20.40;99.90
42347;DHT22;75728;51.856;6.314;2024-03-17T05:35:16;20.40;99.90
42347;DHT22;75728;51.856;6.314;2024-03-17T05:37:42;20.40;99.90
42347;DHT22;75728;51.856;6.314;2024-03-17T05:40:10;20.40;99.90
42347;DHT22;75728;51.856;6.314;2024-03-17T05:42:37;20.50;99.90
42347;DHT22;75728;51.856;6.314;2024-03-17T05:45:03;20.40;99.90
42347;DHT22;75728;51.856;6.314;2024-03-17T05:47:29;20.40;99.90
42347;DHT22;75728;51.856;6.314;2024-03-17T05:49:55;20.40;99.90
42347;DHT22;75728;51.856;6.314;2024-03-17T05:52:21;20.40;99.90
42347;DHT22;75728;51.856;6.314;2024-03-17T05:54:47;20.40;99.90
42347;DHT22;75728;51.856;6.314;2024-03-17T05:57:12;20.40;99.90
42347;DHT22;75728;51.856;6.314;2024-03-17T05:59:40;20.40;99.90
42347;DHT22;75728;51.856;6.314;2024-03-17T06:02:06;20.40;99.90
42347;DHT22;75728;51.856;6.314;2024-03-17T06:04:32;20.40;99.90
42347;DHT22;75728;51.856;6.314;2024-03-17T06:06:57;20.40;99.90
42347;DHT22;75728;51.856;6.314;2024-03-17T06:09:23;20.40;99.90
42347;DHT22;75728;51.856;6.314;2024-03-17T06:11:49;20.40;99.90
42347;DHT22;75728;51.856;6.314;2024-03-17T06:14:15;20.40;99.90
42347;DHT22;75728;51.856;6.314;2024-03-17T06:16:41;20.40;99.90
42347;DHT22;75728;51.856;6.314;2024-03-17T06:19:07;20.40;99.90
42347;DHT22;75728;51.856;6.314;2024-03-17T06:21:32;20.40;99.90
42347;DHT22;75728;51.856;6.314;2024-03-17T06:23:58;20.40;99.90
42347;DHT22;75728;51.856;6.314;2024-03-17T06:26:23;20.40;99.90
42347;DHT22;75728;51.856;6.314;2024-03-17T06:28:49;20.40;99.90
42347;DHT22;75728;51.856;6.314;2024-03-17T06:31:15;20.30;99.90
42347;DHT22;75728;51.856;6.314;2024-03-17T06:33:41;20.40;99.90
42347;DHT22;75728;51.856;6.314;2024-03-17T06:36:07;20.40;99.90
42347;DHT22;75728;51.856;6.314;2024-03-17T06:38:33;20.40;99.90
42347;DHT22;75728;51.856;6.314;2024-03-17T06:40:59;20.40;99.90
42347;DHT22;75728;51.856;6.314;2024-03-17T06:43:24;20.40;99.90
42347;DHT22;75728;51.856;6.314;2024-03-17T06:45:54;20.40;99.90
42347;DHT22;75728;51.856;6.314;2024-03-17T06:48:20;20.40;99.90
42347;DHT22;75728;51.856;6.314;2024-03-17T06:50:46;20.40;99.90
42347;DHT22;75728;51.856;6.314;2024-03-17T06:53:12;20.40;99.90
42347;DHT22;75728;51.856;6.314;2024-03-17T06:55:38;20.40;99.90
42347;DHT22;75728;51.856;6.314;2024-03-17T06:58:04;20.40;99.90
42347;DHT22;75728;51.856;6.314;2024-03-17T07:00:29;20.30;99.90
42347;DHT22;75728;51.856;6.314;2024-03-17T07:02:55;20.40;99.90
42347;DHT22;75728;51.856;6.314;2024-03-17T07:05:21;20.30;99.90
42347;DHT22;75728;51.856;6.314;2024-03-17T07:07:46;20.40;99.90
42347;DHT22;75728;51.856;6.314;2024-03-17T07:10:12;20.40;99.90
42347;DHT22;75728;51.856;6.314;2024-03-17T07:12:39;20.40;99.90
42347;DHT22;75728;51.856;6.314;2024-03-17T07:15:05;20.40;99.90
42347;DHT22;75728;51.856;6.314;2024-03-17T07:17:31;20.30;99.90
42347;DHT22;75728;51.856;6.314;2024-03-17T07:19:56;20.40;99.90
42347;DHT22;75728;51.856;6.314;2024-03-17T07:22:22;20.40;99.90
42347;DHT22;75728;51.856;6.314;2024-03-17T07:24:48;20.30;99.90
42347;DHT22;75728;51.856;6.314;2024-03-17T07:27:17;20.30;99.90
42347;DHT22;75728;51.856;6.314;2024-03-17T07:29:43;20.40;99.90
42347;DHT22;75728;51.856;6.314;2024-03-17T07:32:08;20.40;99.90
42347;DHT22;75728;51.856;6.314;2024-03-17T07:34:34;20.40;99.90
42347;DHT22;75728;51.856;6.314;2024-03-17T07:37:00;20.40;99.90
42347;DHT22;75728;51.856;6.314;2024-03-17T07:39:31;20.40;99.90
42347;DHT22;75728;51.856;6.314;2024-03-17T07:42:00;20.40;99.90
42347;DHT22;75728;51.856;6.314;2024-03-17T07:44:29;20.50;99.90
42347;DHT22;75728;51.856;6.314;2024-03-17T07:47:00;20.50;99.90
42347;DHT22;75728;51.856;6.314;2024-03-17T07:49:26;20.50;99.90
42347;DHT22;75728;51.856;6.314;2024-03-17T07:51:51;20.50;99.90
42347;DHT22;75728;51.856;6.314;2024-03-17T07:54:17;20.50;99.90
42347;DHT22;75728;51.856;6.314;2024-03-17T07:56:45;20.50;99.90
42347;DHT22;75728;51.856;6.314;2024-03-17T07:59:12;20.50;99.90
42347;DHT22;75728;51.856;6.314;2024-03-17T08:01:39;20.50;99.90
42347;DHT22;75728;51.856;6.314;2024-03-17T08:04:05;20.50;99.90
42347;DHT22;75728;51.856;6.314;2024-03-17T08:06:31;20.50;99.90
42347;DHT22;75728;51.856;6.314;2024-03-17T08:08:57;20.50;99.90
42347;DHT22;75728;51.856;6.314;2024-03-17T08:11:23;20.50;99.90
42347;DHT22;75728;51.856;6.314;2024-03-17T08:13:50;20.40;99.90
42347;DHT22;75728;51.856;6.314;2024-03-17T08:16:15;20.40;99.90
42347;DHT22;75728;51.856;6.314;2024-03-17T08:18:42;20.40;99.90
42347;DHT22;75728;51.856;6.314;2024-03-17T08:21:07;20.40;99.90
42347;DHT22;75728;51.856;6.314;2024-03-17T08:23:34;20.40;99.90
42347;DHT22;75728;51.856;6.314;2024-03-17T08:26:07;20.40;99.90
42347;DHT22;75728;51.856;6.314;2024-03-17T08:28:32;20.40;99.90
42347;DHT22;75728;51.856;6.314;2024-03-17T08:31:00;20.40;99.90
42347;DHT22;75728;51.856;6.314;2024-03-17T08:33:26;20.50;99.90
42347;DHT22;75728;51.856;6.314;2024-03-17T08:36:00;20.50;99.90
42347;DHT22;75728;51.856;6.314;2024-03-17T08:38:28;20.50;99.90
42347;DHT22;75728;51.856;6.314;2024-03-17T08:40:55;20.40;99.90
42347;DHT22;75728;51.856;6.314;2024-03-17T08:43:21;20.40;99.90
42347;DHT22;75728;51.856;6.314;2024-03-17T08:46:04;20.50;99.90
42347;DHT22;75728;51.856;6.314;2024-03-17T08:48:36;20.50;99.90
42347;DHT22;75728;51.856;6.314;2024-03-17T08:51:03;20.50;99.90
42347;DHT22;75728;51.856;6.314;2024-03-17T08:53:29;20.50;99.90
42347;DHT22;75728;51.856;6.314;2024-03-17T08:55:56;20.50;99.90
42347;DHT22;75728;51.856;6.314;2024-03-17T08:58:22;20.50;97.20
42347;DHT22;75728;51.856;6.314;2024-03-17T09:00:47;20.30;97.10
42347;DHT22;75728;51.856;6.314;2024-03-17T09:03:13;20.20;97.40
42347;DHT22;75728;51.856;6.314;2024-03-17T09:05:41;20.30;97.10
42347;DHT22;75728;51.856;6.314;2024-03-17T09:08:07;20.60;97.20
42347;DHT22;75728;51.856;6.314;2024-03-17T09:10:39;20.80;96.70
42347;DHT22;75728;51.856;6.314;2024-03-17T09:13:05;21.00;97.00
42347;DHT22;75728;51.856;6.314;2024-03-17T09:15:31;20.80;96.90
42347;DHT22;75728;51.856;6.314;2024-03-17T09:17:56;20.60;96.90
42347;DHT22;75728;51.856;6.314;2024-03-17T09:20:22;20.40;96.90
42347;DHT22;75728;51.856;6.314;2024-03-17T09:22:47;20.30;97.20
42347;DHT22;75728;51.856;6.314;2024-03-17T09:25:13;20.40;97.20
42347;DHT22;75728;51.856;6.314;2024-03-17T09:27:40;20.50;97.80
42347;DHT22;75728;51.856;6.314;2024-03-17T09:30:06;20.50;97.30
42347;DHT22;75728;51.856;6.314;2024-03-17T09:32:37;20.40;97.20
42347;DHT22;75728;51.856;6.314;2024-03-17T09:35:04;20.50;97.00
42347;DHT22;75728;51.856;6.314;2024-03-17T09:37:30;20.50;97.20
42347;DHT22;75728;51.856;6.314;2024-03-17T09:39:57;20.40;97.50
42347;DHT22;75728;51.856;6.314;2024-03-17T09:42:24;20.40;97.00
42347;DHT22;75728;51.856;6.314;2024-03-17T09:44:50;20.40;96.90
42347;DHT22;75728;51.856;6.314;2024-03-17T09:47:20;20.40;97.30
42347;DHT22;75728;51.856;6.314;2024-03-17T09:49:50;20.40;97.20
42347;DHT22;75728;51.856;6.314;2024-03-17T09:54:44;20.40;96.80
42347;DHT22;75728;51.856;6.314;2024-03-17T09:57:16;20.40;96.90
42347;DHT22;75728;51.856;6.314;2024-03-17T09:59:42;20.40;97.00
42347;DHT22;75728;51.856;6.314;2024-03-17T10:02:16;20.40;97.10
42347;DHT22;75728;51.856;6.314;2024-03-17T10:04:43;20.40;96.80
42347;DHT22;75728;51.856;6.314;2024-03-17T10:07:09;20.40;97.20
42347;DHT22;75728;51.856;6.314;2024-03-17T10:09:34;20.40;97.40
42347;DHT22;75728;51.856;6.314;2024-03-17T10:12:00;20.40;97.30
42347;DHT22;75728;51.856;6.314;2024-03-17T10:14:26;20.30;96.70
42347;DHT22;75728;51.856;6.314;2024-03-17T10:16:51;20.40;96.90
42347;DHT22;75728;51.856;6.314;2024-03-17T10:19:26;20.40;96.70
42347;DHT22;75728;51.856;6.314;2024-03-17T10:22:00;20.30;96.70
42347;DHT22;75728;51.856;6.314;2024-03-17T10:24:28;20.30;97.20
42347;DHT22;75728;51.856;6.314;2024-03-17T10:27:02;20.40;96.70
42347;DHT22;75728;51.856;6.314;2024-03-17T10:29:30;20.30;96.50
42347;DHT22;75728;51.856;6.314;2024-03-17T10:32:02;20.40;96.70
42347;DHT22;75728;51.856;6.314;2024-03-17T10:34:29;20.30;96.50
42347;DHT22;75728;51.856;6.314;2024-03-17T10:37:13;20.40;96.80
42347;DHT22;75728;51.856;6.314;2024-03-17T10:39:43;20.40;96.60
42347;DHT22;75728;51.856;6.314;2024-03-17T10:42:10;20.40;96.70
42347;DHT22;75728;51.856;6.314;2024-03-17T10:44:41;20.40;96.70
42347;DHT22;75728;51.856;6.314;2024-03-17T10:49:46;20.40;97.00
42347;DHT22;75728;51.856;6.314;2024-03-17T10:52:18;20.40;97.10
42347;DHT22;75728;51.856;6.314;2024-03-17T10:54:49;20.30;97.00
42347;DHT22;75728;51.856;6.314;2024-03-17T10:59:52;20.30;96.90
42347;DHT22;75728;51.856;6.314;2024-03-17T11:02:22;20.30;96.80
42347;DHT22;75728;51.856;6.314;2024-03-17T11:04:51;20.30;97.00
42347;DHT22;75728;51.856;6.314;2024-03-17T11:07:17;20.30;96.80
42347;DHT22;75728;51.856;6.314;2024-03-17T11:09:45;20.30;97.00
42347;DHT22;75728;51.856;6.314;2024-03-17T11:17:51;20.30;96.80
42347;DHT22;75728;51.856;6.314;2024-03-17T11:20:24;20.30;97.20
42347;DHT22;75728;51.856;6.314;2024-03-17T11:22:53;20.30;96.80
42347;DHT22;75728;51.856;6.314;2024-03-17T11:27:57;20.30;96.90
42347;DHT22;75728;51.856;6.314;2024-03-17T11:30:49;20.30;97.10
42347;DHT22;75728;51.856;6.314;2024-03-17T11:46:44;20.40;96.60
42347;DHT22;75728;51.856;6.314;2024-03-17T11:49:41;20.30;96.90
42347;DHT22;75728;51.856;6.314;2024-03-17T11:52:16;20.40;96.70
42347;DHT22;75728;51.856;6.314;2024-03-17T11:54:43;20.30;96.40
42347;DHT22;75728;51.856;6.314;2024-03-17T11:57:28;20.30;97.40
42347;DHT22;75728;51.856;6.314;2024-03-17T11:59:55;20.30;97.10
42347;DHT22;75728;51.856;6.314;2024-03-17T12:02:29;20.30;97.20
42347;DHT22;75728;51.856;6.314;2024-03-17T12:05:00;20.40;97.20
42347;DHT22;75728;51.856;6.314;2024-03-17T12:07:26;20.30;96.90
42347;DHT22;75728;51.856;6.314;2024-03-17T12:09:53;20.40;97.00
42347;DHT22;75728;51.856;6.314;2024-03-17T12:12:27;20.40;96.90
42347;DHT22;75728;51.856;6.314;2024-03-17T12:15:03;20.30;97.10
42347;DHT22;75728;51.856;6.314;2024-03-17T12:17:31;20.40;96.80
42347;DHT22;75728;51.856;6.314;2024-03-17T12:19:56;20.40;97.00
42347;DHT22;75728;51.856;6.314;2024-03-17T12:22:23;20.40;96.70
42347;DHT22;75728;51.856;6.314;2024-03-17T12:24:54;20.40;97.00
42347;DHT22;75728;51.856;6.314;2024-03-17T12:27:24;20.40;97.20
42347;DHT22;75728;51.856;6.314;2024-03-17T12:29:54;20.40;96.90
42347;DHT22;75728;51.856;6.314;2024-03-17T12:32:22;20.40;97.40
42347;DHT22;75728;51.856;6.314;2024-03-17T12:34:51;20.40;97.00
42347;DHT22;75728;51.856;6.314;2024-03-17T12:37:21;20.40;97.10
42347;DHT22;75728;51.856;6.314;2024-03-17T12:39:47;20.40;97.30
42347;DHT22;75728;51.856;6.314;2024-03-17T12:42:14;20.40;96.80
42347;DHT22;75728;51.856;6.314;2024-03-17T12:44:57;20.40;96.90
42347;DHT22;75728;51.856;6.314;2024-03-17T12:47:28;20.40;97.10
42347;DHT22;75728;51.856;6.314;2024-03-17T12:49:57;20.50;96.90
42347;DHT22;75728;51.856;6.314;2024-03-17T12:52:31;20.40;97.10
42347;DHT22;75728;51.856;6.314;2024-03-17T12:55:04;20.50;97.00
42347;DHT22;75728;51.856;6.314;2024-03-17T12:57:49;20.50;97.10
42347;DHT22;75728;51.856;6.314;2024-03-17T13:00:35;20.50;97.00
42347;DHT22;75728;51.856;6.314;2024-03-17T13:03:05;20.40;97.30
42347;DHT22;75728;51.856;6.314;2024-03-17T13:05:35;20.50;96.90
42347;DHT22;75728;51.856;6.314;2024-03-17T13:08:01;20.50;97.20
42347;DHT22;75728;51.856;6.314;2024-03-17T13:10:28;20.50;96.90
42347;DHT22;75728;51.856;6.314;2024-03-17T13:13:05;20.40;96.70
42347;DHT22;75728;51.856;6.314;2024-03-17T13:15:33;20.50;97.30
42347;DHT22;75728;51.856;6.314;2024-03-17T13:18:01;20.50;97.40
42347;DHT22;75728;51.856;6.314;2024-03-17T13:20:27;20.50;97.30
42347;DHT22;75728;51.856;6.314;2024-03-17T13:22:53;20.50;97.30
42347;DHT22;75728;51.856;6.314;2024-03-17T13:25:25;20.50;97.50
42347;DHT22;75728;51.856;6.314;2024-03-17T13:27:55;20.50;96.80
42347;DHT22;75728;51.856;6.314;2024-03-17T13:30:22;20.50;97.20
42347;DHT22;75728;51.856;6.314;2024-03-17T13:32:49;20.50;97.30
42347;DHT22;75728;51.856;6.314;2024-03-17T13:35:22;20.50;97.30
42347;DHT22;75728;51.856;6.314;2024-03-17T13:37:49;20.50;97.30
42347;DHT22;75728;51.856;6.314;2024-03-17T13:40:19;20.50;97.40
42347;DHT22;75728;51.856;6.314;2024-03-17T13:42:49;20.50;97.60
42347;DHT22;75728;51.856;6.314;2024-03-17T13:45:16;20.50;97.70
42347;DHT22;75728;51.856;6.314;2024-03-17T13:47:46;20.50;97.40
42347;DHT22;75728;51.856;6.314;2024-03-17T13:50:12;20.50;97.70
42347;DHT22;75728;51.856;6.314;2024-03-17T13:52:42;20.50;97.50
42347;DHT22;75728;51.856;6.314;2024-03-17T13:55:15;20.50;97.70
42347;DHT22;75728;51.856;6.314;2024-03-17T13:57:47;20.50;97.80
42347;DHT22;75728;51.856;6.314;2024-03-17T14:00:13;20.50;97.80
42347;DHT22;75728;51.856;6.314;2024-03-17T14:02:45;20.50;97.60
42347;DHT22;75728;51.856;6.314;2024-03-17T14:05:16;20.50;97.80
42347;DHT22;75728;51.856;6.314;2024-03-17T14:07:42;20.50;97.80
42347;DHT22;75728;51.856;6.314;2024-03-17T14:10:10;20.50;97.80
42347;DHT22;75728;51.856;6.314;2024-03-17T14:12:37;20.50;97.30
42347;DHT22;75728;51.856;6.314;2024-03-17T14:15:06;20.50;97.70
42347;DHT22;75728;51.856;6.314;2024-03-17T14:17:32;20.50;97.80
42347;DHT22;75728;51.856;6.314;2024-03-17T14:19:58;20.50;97.90
42347;DHT22;75728;51.856;6.314;2024-03-17T14:22:24;20.50;97.90
42347;DHT22;75728;51.856;6.314;2024-03-17T14:24:50;20.50;98.10
42347;DHT22;75728;51.856;6.314;2024-03-17T14:27:16;20.50;98.00
42347;DHT22;75728;51.856;6.314;2024-03-17T14:29:45;20.50;97.30
42347;DHT22;75728;51.856;6.314;2024-03-17T14:32:10;20.50;97.30
42347;DHT22;75728;51.856;6.314;2024-03-17T14:34:36;20.50;97.40
42347;DHT22;75728;51.856;6.314;2024-03-17T14:37:03;20.50;97.30
42347;DHT22;75728;51.856;6.314;2024-03-17T14:39:30;20.50;97.70
42347;DHT22;75728;51.856;6.314;2024-03-17T14:41:56;20.50;97.80
42347;DHT22;75728;51.856;6.314;2024-03-17T14:44:22;20.50;97.30
42347;DHT22;75728;51.856;6.314;2024-03-17T14:46:48;20.50;97.80
42347;DHT22;75728;51.856;6.314;2024-03-17T14:49:17;20.50;97.60
42347;DHT22;75728;51.856;6.314;2024-03-17T14:51:43;20.50;97.60
42347;DHT22;75728;51.856;6.314;2024-03-17T14:54:08;20.50;97.60
42347;DHT22;75728;51.856;6.314;2024-03-17T14:56:35;20.50;98.00
42347;DHT22;75728;51.856;6.314;2024-03-17T14:59:00;20.50;97.80
42347;DHT22;75728;51.856;6.314;2024-03-17T15:01:26;20.50;98.20
42347;DHT22;75728;51.856;6.314;2024-03-17T15:03:55;20.50;97.60
42347;DHT22;75728;51.856;6.314;2024-03-17T15:06:21;20.50;97.60
42347;DHT22;75728;51.856;6.314;2024-03-17T15:08:46;20.50;97.80
42347;DHT22;75728;51.856;6.314;2024-03-17T15:11:12;20.50;97.60
42347;DHT22;75728;51.856;6.314;2024-03-17T15:13:38;20.50;98.00
42347;DHT22;75728;51.856;6.314;2024-03-17T15:16:03;20.50;97.60
42347;DHT22;75728;51.856;6.314;2024-03-17T15:18:32;20.50;97.60
42347;DHT22;75728;51.856;6.314;2024-03-17T15:21:00;20.50;97.50
42347;DHT22;75728;51.856;6.314;2024-03-17T15:23:29;20.50;97.70
42347;DHT22;75728;51.856;6.314;2024-03-17T15:26:01;20.50;97.50
42347;DHT22;75728;51.856;6.314;2024-03-17T15:28:32;20.50;97.80
42347;DHT22;75728;51.856;6.314;2024-03-17T15:30:58;20.50;97.60
42347;DHT22;75728;51.856;6.314;2024-03-17T15:33:26;20.50;97.70
42347;DHT22;75728;51.856;6.314;2024-03-17T15:35:51;20.60;98.20
42347;DHT22;75728;51.856;6.314;2024-03-17T15:38:17;20.60;97.60
42347;DHT22;75728;51.856;6.314;2024-03-17T15:40:43;20.50;97.70
42347;DHT22;75728;51.856;6.314;2024-03-17T15:43:09;20.50;97.70
42347;DHT22;75728;51.856;6.314;2024-03-17T15:45:35;20.50;98.10
42347;DHT22;75728;51.856;6.314;2024-03-17T15:48:04;20.50;97.60
42347;DHT22;75728;51.856;6.314;2024-03-17T15:50:30;20.60;97.90
42347;DHT22;75728;51.856;6.314;2024-03-17T15:52:56;20.50;97.60
42347;DHT22;75728;51.856;6.314;2024-03-17T15:55:22;20.60;97.50
42347;DHT22;75728;51.856;6.314;2024-03-17T15:57:50;20.50;97.50
42347;DHT22;75728;51.856;6.314;2024-03-17T16:00:17;20.50;97.30
42347;DHT22;75728;51.856;6.314;2024-03-17T16:02:44;20.60;97.60